sensor_id;sensor_type;location;lat;lon;timestamp;P1;durP1;ratioP1;P2;durP2;ratioP2
9759;SDS011;4919;48.792;9.202;2023-03-01T00:01:00;25.10;;;15.90;;
9759;SDS011;4919;48.792;9.202;2023-03-01T00:03:46;24.77;;;15.20;;
9759;SDS011;4919;48.792;9.202;2023-03-01T00:06:31;24.80;;;15.67;;
9759;SDS011;4919;48.792;9.202;2023-03-01T00:09:16;23.63;;;14.87;;
9759;SDS011;4919;48.792;9.202;2023-03-01T00:12:01;21.40;;;14.07;;
9759;SDS011;4919;48.792;9.202;2023-03-01T00:14:46;25.97;;;14.67;;
9759;SDS011;4919;48.792;9.202;2023-03-01T00:17:31;24.03;;;13.67;;
9759;SDS011;4919;48.792;9.202;2023-03-01T00:20:16;20.20;;;12.67;;
9759;SDS011;4919;48.792;9.202;2023-03-01T00:23:01;21.13;;;12.80;;
9759;SDS011;4919;48.792;9.202;2023-03-01T00:25:46;20.23;;;12.97;;
9759;SDS011;4919;48.792;9.202;2023-03-01T00:28:31;22.13;;;13.17;;
9759;SDS011;4919;48.792;9.202;2023-03-01T00:31:20;21.13;;;13.37;;
9759;SDS011;4919;48.792;9.202;2023-03-01T00:34:06;20.57;;;13.27;;
9759;SDS011;4919;48.792;9.202;2023-03-01T00:36:51;24.73;;;15.30;;
9759;SDS011;4919;48.792;9.202;2023-03-01T00:39:35;21.17;;;14.10;;
9759;SDS011;4919;48.792;9.202;2023-03-01T00:42:20;19.90;;;13.43;;
9759;SDS011;4919;48.792;9.202;2023-03-01T00:45:05;22.90;;;14.43;;
9759;SDS011;4919;48.792;9.202;2023-03-01T00:47:51;19.10;;;13.60;;
9759;SDS011;4919;48.792;9.202;2023-03-01T00:50:36;23.03;;;13.63;;
9759;SDS011;4919;48.792;9.202;2023-03-01T00:53:21;20.93;;;13.33;;
9759;SDS011;4919;48.792;9.202;2023-03-01T00:56:06;24.90;;;16.03;;
9759;SDS011;4919;48.792;9.202;2023-03-01T00:58:53;26.37;;;15.23;;
9759;SDS011;4919;48.792;9.202;2023-03-01T01:01:38;27.30;;;15.53;;
9759;SDS011;4919;48.792;9.202;2023-03-01T01:04:23;25.53;;;15.53;;
9759;SDS011;4919;48.792;9.202;2023-03-01T01:07:08;24.77;;;15.27;;
9759;SDS011;4919;48.792;9.202;2023-03-01T01:09:53;25.13;;;16.17;;
9759;SDS011;4919;48.792;9.202;2023-03-01T01:12:37;27.40;;;16.60;;
9759;SDS011;4919;48.792;9.202;2023-03-01T01:15:22;23.73;;;14.80;;
9759;SDS011;4919;48.792;9.202;2023-03-01T01:18:07;28.37;;;16.67;;
9759;SDS011;4919;48.792;9.202;2023-03-01T01:20:52;25.27;;;15.13;;
9759;SDS011;4919;48.792;9.202;2023-03-01T01:23:38;24.30;;;14.80;;
9759;SDS011;4919;48.792;9.202;2023-03-01T01:26:28;25.37;;;15.23;;
9759;SDS011;4919;48.792;9.202;2023-03-01T01:29:14;24.77;;;15.63;;
9759;SDS011;4919;48.792;9.202;2023-03-01T01:31:59;24.20;;;14.97;;
9759;SDS011;4919;48.792;9.202;2023-03-01T01:34:43;27.83;;;16.67;;
9759;SDS011;4919;48.792;9.202;2023-03-01T01:37:28;28.10;;;16.03;;
9759;SDS011;4919;48.792;9.202;2023-03-01T01:40:13;23.67;;;15.83;;
9759;SDS011;4919;48.792;9.202;2023-03-01T01:42:58;23.03;;;15.40;;
9759;SDS011;4919;48.792;9.202;2023-03-01T01:45:43;30.77;;;15.47;;
9759;SDS011;4919;48.792;9.202;2023-03-01T01:49:03;28.77;;;16.00;;
9759;SDS011;4919;48.792;9.202;2023-03-01T01:51:43;21.73;;;14.17;;
9759;SDS011;4919;48.792;9.202;2023-03-01T01:54:40;24.53;;;15.37;;
9759;SDS011;4919;48.792;9.202;2023-03-01T01:57:36;22.67;;;14.53;;
9759;SDS011;4919;48.792;9.202;2023-03-01T02:00:27;26.63;;;16.17;;
9759;SDS011;4919;48.792;9.202;2023-03-01T02:03:14;27.33;;;15.67;;
9759;SDS011;4919;48.792;9.202;2023-03-01T02:09:07;28.17;;;15.60;;
9759;SDS011;4919;48.792;9.202;2023-03-01T02:11:56;25.23;;;15.27;;
9759;SDS011;4919;48.792;9.202;2023-03-01T02:14:41;30.80;;;16.50;;
9759;SDS011;4919;48.792;9.202;2023-03-01T02:17:26;27.73;;;15.20;;
9759;SDS011;4919;48.792;9.202;2023-03-01T02:20:16;26.77;;;15.53;;
9759;SDS011;4919;48.792;9.202;2023-03-01T02:23:22;25.67;;;15.13;;
9759;SDS011;4919;48.792;9.202;2023-03-01T02:26:11;26.70;;;15.80;;
9759;SDS011;4919;48.792;9.202;2023-03-01T02:29:09;27.83;;;15.83;;
9759;SDS011;4919;48.792;9.202;2023-03-01T02:31:54;24.17;;;15.70;;
9759;SDS011;4919;48.792;9.202;2023-03-01T02:34:42;27.73;;;16.37;;
9759;SDS011;4919;48.792;9.202;2023-03-01T02:37:27;28.40;;;16.23;;
9759;SDS011;4919;48.792;9.202;2023-03-01T02:40:13;26.97;;;15.90;;
9759;SDS011;4919;48.792;9.202;2023-03-01T02:43:01;23.63;;;15.17;;
9759;SDS011;4919;48.792;9.202;2023-03-01T02:45:51;27.87;;;16.27;;
9759;SDS011;4919;48.792;9.202;2023-03-01T02:48:44;28.30;;;15.77;;
9759;SDS011;4919;48.792;9.202;2023-03-01T02:54:52;31.20;;;16.57;;
9759;SDS011;4919;48.792;9.202;2023-03-01T02:57:47;32.13;;;16.93;;
9759;SDS011;4919;48.792;9.202;2023-03-01T03:00:34;26.77;;;15.93;;
9759;SDS011;4919;48.792;9.202;2023-03-01T03:03:22;26.37;;;16.07;;
9759;SDS011;4919;48.792;9.202;2023-03-01T03:06:07;26.00;;;15.33;;
9759;SDS011;4919;48.792;9.202;2023-03-01T03:08:52;25.33;;;15.67;;
9759;SDS011;4919;48.792;9.202;2023-03-01T03:11:37;29.10;;;17.73;;
9759;SDS011;4919;48.792;9.202;2023-03-01T03:14:21;34.93;;;17.80;;
9759;SDS011;4919;48.792;9.202;2023-03-01T03:17:06;34.07;;;18.03;;
9759;SDS011;4919;48.792;9.202;2023-03-01T03:19:51;29.10;;;16.47;;
9759;SDS011;4919;48.792;9.202;2023-03-01T03:22:37;27.80;;;16.57;;
9759;SDS011;4919;48.792;9.202;2023-03-01T03:25:23;27.57;;;16.60;;
9759;SDS011;4919;48.792;9.202;2023-03-01T03:28:10;25.23;;;16.00;;
9759;SDS011;4919;48.792;9.202;2023-03-01T03:30:54;28.97;;;17.17;;
9759;SDS011;4919;48.792;9.202;2023-03-01T03:33:39;25.23;;;16.23;;
9759;SDS011;4919;48.792;9.202;2023-03-01T03:36:24;28.70;;;16.83;;
9759;SDS011;4919;48.792;9.202;2023-03-01T03:39:09;25.80;;;15.23;;
9759;SDS011;4919;48.792;9.202;2023-03-01T03:41:54;25.20;;;16.30;;
9759;SDS011;4919;48.792;9.202;2023-03-01T03:44:39;26.30;;;15.73;;
9759;SDS011;4919;48.792;9.202;2023-03-01T03:47:24;24.37;;;15.83;;
9759;SDS011;4919;48.792;9.202;2023-03-01T03:50:10;26.13;;;16.00;;
9759;SDS011;4919;48.792;9.202;2023-03-01T03:52:55;25.83;;;15.23;;
9759;SDS011;4919;48.792;9.202;2023-03-01T03:55:40;27.23;;;15.60;;
9759;SDS011;4919;48.792;9.202;2023-03-01T03:58:25;25.27;;;14.73;;
9759;SDS011;4919;48.792;9.202;2023-03-01T04:01:10;24.80;;;15.67;;
9759;SDS011;4919;48.792;9.202;2023-03-01T04:03:55;24.40;;;15.10;;
9759;SDS011;4919;48.792;9.202;2023-03-01T04:06:40;23.13;;;15.40;;
9759;SDS011;4919;48.792;9.202;2023-03-01T04:09:24;22.97;;;14.97;;
9759;SDS011;4919;48.792;9.202;2023-03-01T04:12:10;25.30;;;15.40;;
9759;SDS011;4919;48.792;9.202;2023-03-01T04:14:55;25.73;;;14.87;;
9759;SDS011;4919;48.792;9.202;2023-03-01T04:17:40;24.80;;;15.77;;
9759;SDS011;4919;48.792;9.202;2023-03-01T04:20:27;22.83;;;15.57;;
9759;SDS011;4919;48.792;9.202;2023-03-01T04:23:17;24.87;;;16.40;;
9759;SDS011;4919;48.792;9.202;2023-03-01T04:26:03;28.60;;;16.23;;
9759;SDS011;4919;48.792;9.202;2023-03-01T04:28:48;27.37;;;16.60;;
9759;SDS011;4919;48.792;9.202;2023-03-01T04:31:33;28.40;;;16.17;;
9759;SDS011;4919;48.792;9.202;2023-03-01T04:34:18;25.10;;;15.77;;
9759;SDS011;4919;48.792;9.202;2023-03-01T04:37:03;26.40;;;15.23;;
9759;SDS011;4919;48.792;9.202;2023-03-01T04:39:48;24.80;;;15.67;;
9759;SDS011;4919;48.792;9.202;2023-03-01T04:42:32;27.77;;;16.00;;
9759;SDS011;4919;48.792;9.202;2023-03-01T04:45:17;25.63;;;15.97;;
9759;SDS011;4919;48.792;9.202;2023-03-01T04:48:03;26.43;;;15.53;;
9759;SDS011;4919;48.792;9.202;2023-03-01T04:50:48;26.80;;;16.63;;
9759;SDS011;4919;48.792;9.202;2023-03-01T04:53:33;27.10;;;16.17;;
9759;SDS011;4919;48.792;9.202;2023-03-01T04:56:18;25.37;;;15.27;;
9759;SDS011;4919;48.792;9.202;2023-03-01T04:59:03;28.70;;;15.97;;
9759;SDS011;4919;48.792;9.202;2023-03-01T05:01:48;28.47;;;16.67;;
9759;SDS011;4919;48.792;9.202;2023-03-01T05:04:34;25.43;;;16.33;;
9759;SDS011;4919;48.792;9.202;2023-03-01T05:07:19;26.77;;;16.23;;
9759;SDS011;4919;48.792;9.202;2023-03-01T05:10:03;24.20;;;16.10;;
9759;SDS011;4919;48.792;9.202;2023-03-01T05:12:48;28.93;;;16.60;;
9759;SDS011;4919;48.792;9.202;2023-03-01T05:15:33;25.93;;;16.50;;
9759;SDS011;4919;48.792;9.202;2023-03-01T05:18:18;27.57;;;16.27;;
9759;SDS011;4919;48.792;9.202;2023-03-01T05:21:07;29.23;;;16.87;;
9759;SDS011;4919;48.792;9.202;2023-03-01T05:23:54;27.33;;;16.20;;
9759;SDS011;4919;48.792;9.202;2023-03-01T05:26:39;23.17;;;15.17;;
9759;SDS011;4919;48.792;9.202;2023-03-01T05:29:24;29.47;;;15.70;;
9759;SDS011;4919;48.792;9.202;2023-03-01T05:32:10;30.23;;;16.17;;
9759;SDS011;4919;48.792;9.202;2023-03-01T05:34:55;28.37;;;15.90;;
9759;SDS011;4919;48.792;9.202;2023-03-01T05:37:40;32.63;;;18.27;;
9759;SDS011;4919;48.792;9.202;2023-03-01T05:40:29;28.33;;;18.00;;
9759;SDS011;4919;48.792;9.202;2023-03-01T05:43:15;32.70;;;18.93;;
9759;SDS011;4919;48.792;9.202;2023-03-01T05:46:00;26.30;;;16.57;;
9759;SDS011;4919;48.792;9.202;2023-03-01T05:48:45;22.10;;;15.20;;
9759;SDS011;4919;48.792;9.202;2023-03-01T05:51:30;25.33;;;16.43;;
9759;SDS011;4919;48.792;9.202;2023-03-01T05:54:15;24.33;;;15.80;;
9759;SDS011;4919;48.792;9.202;2023-03-01T05:57:00;24.57;;;15.23;;
9759;SDS011;4919;48.792;9.202;2023-03-01T05:59:45;26.93;;;15.90;;
9759;SDS011;4919;48.792;9.202;2023-03-01T06:02:29;28.97;;;16.57;;
9759;SDS011;4919;48.792;9.202;2023-03-01T06:05:14;26.97;;;16.27;;
9759;SDS011;4919;48.792;9.202;2023-03-01T06:07:59;23.37;;;15.47;;
9759;SDS011;4919;48.792;9.202;2023-03-01T06:10:45;25.90;;;15.77;;
9759;SDS011;4919;48.792;9.202;2023-03-01T06:13:30;25.63;;;16.37;;
9759;SDS011;4919;48.792;9.202;2023-03-01T06:16:15;24.97;;;15.70;;
9759;SDS011;4919;48.792;9.202;2023-03-01T06:19:00;24.80;;;14.97;;
9759;SDS011;4919;48.792;9.202;2023-03-01T06:21:45;27.27;;;16.37;;
9759;SDS011;4919;48.792;9.202;2023-03-01T06:24:29;24.97;;;14.87;;
9759;SDS011;4919;48.792;9.202;2023-03-01T06:27:15;24.37;;;15.17;;
9759;SDS011;4919;48.792;9.202;2023-03-01T06:29:59;25.73;;;15.47;;
9759;SDS011;4919;48.792;9.202;2023-03-01T06:32:44;24.97;;;16.27;;
9759;SDS011;4919;48.792;9.202;2023-03-01T06:35:29;24.70;;;14.20;;
9759;SDS011;4919;48.792;9.202;2023-03-01T06:38:14;26.37;;;16.17;;
9759;SDS011;4919;48.792;9.202;2023-03-01T06:40:59;26.73;;;14.77;;
9759;SDS011;4919;48.792;9.202;2023-03-01T06:43:44;27.40;;;15.40;;
9759;SDS011;4919;48.792;9.202;2023-03-01T06:46:29;25.80;;;15.47;;
9759;SDS011;4919;48.792;9.202;2023-03-01T06:49:14;27.13;;;14.77;;
9759;SDS011;4919;48.792;9.202;2023-03-01T06:51:59;24.43;;;14.70;;
9759;SDS011;4919;48.792;9.202;2023-03-01T06:54:44;25.40;;;15.33;;
9759;SDS011;4919;48.792;9.202;2023-03-01T06:57:28;20.53;;;14.33;;
9759;SDS011;4919;48.792;9.202;2023-03-01T07:00:13;24.80;;;15.27;;
9759;SDS011;4919;48.792;9.202;2023-03-01T07:02:59;25.97;;;14.60;;
9759;SDS011;4919;48.792;9.202;2023-03-01T07:05:45;24.53;;;13.63;;
9759;SDS011;4919;48.792;9.202;2023-03-01T07:08:32;22.27;;;13.30;;
9759;SDS011;4919;48.792;9.202;2023-03-01T07:11:16;24.20;;;13.83;;
9759;SDS011;4919;48.792;9.202;2023-03-01T07:14:01;22.23;;;13.73;;
9759;SDS011;4919;48.792;9.202;2023-03-01T07:16:46;25.33;;;14.37;;
9759;SDS011;4919;48.792;9.202;2023-03-01T07:19:31;23.53;;;13.77;;
9759;SDS011;4919;48.792;9.202;2023-03-01T07:22:16;25.20;;;14.13;;
9759;SDS011;4919;48.792;9.202;2023-03-01T07:25:01;20.60;;;13.13;;
9759;SDS011;4919;48.792;9.202;2023-03-01T07:27:50;22.77;;;13.53;;
9759;SDS011;4919;48.792;9.202;2023-03-01T07:30:35;24.10;;;14.63;;
9759;SDS011;4919;48.792;9.202;2023-03-01T07:33:20;24.60;;;14.07;;
9759;SDS011;4919;48.792;9.202;2023-03-01T07:36:05;22.83;;;13.97;;
9759;SDS011;4919;48.792;9.202;2023-03-01T07:38:50;26.40;;;14.23;;
9759;SDS011;4919;48.792;9.202;2023-03-01T07:41:35;23.20;;;14.53;;
9759;SDS011;4919;48.792;9.202;2023-03-01T07:44:20;27.23;;;16.30;;
9759;SDS011;4919;48.792;9.202;2023-03-01T07:47:05;27.20;;;16.37;;
9759;SDS011;4919;48.792;9.202;2023-03-01T07:49:50;27.47;;;16.33;;
9759;SDS011;4919;48.792;9.202;2023-03-01T07:52:35;23.53;;;15.80;;
9759;SDS011;4919;48.792;9.202;2023-03-01T07:55:21;25.57;;;16.17;;
9759;SDS011;4919;48.792;9.202;2023-03-01T07:58:05;25.63;;;15.90;;
9759;SDS011;4919;48.792;9.202;2023-03-01T08:00:50;23.07;;;15.53;;
9759;SDS011;4919;48.792;9.202;2023-03-01T08:03:35;22.27;;;14.20;;
9759;SDS011;4919;48.792;9.202;2023-03-01T08:06:21;22.33;;;14.80;;
9759;SDS011;4919;48.792;9.202;2023-03-01T08:09:05;20.63;;;14.10;;
9759;SDS011;4919;48.792;9.202;2023-03-01T08:11:50;25.07;;;14.23;;
9759;SDS011;4919;48.792;9.202;2023-03-01T08:14:35;17.13;;;11.40;;
9759;SDS011;4919;48.792;9.202;2023-03-01T08:17:20;12.53;;;9.40;;
9759;SDS011;4919;48.792;9.202;2023-03-01T08:20:05;15.83;;;10.20;;
9759;SDS011;4919;48.792;9.202;2023-03-01T08:22:50;13.50;;;7.87;;
9759;SDS011;4919;48.792;9.202;2023-03-01T08:25:35;13.10;;;8.73;;
9759;SDS011;4919;48.792;9.202;2023-03-01T08:28:20;17.97;;;9.30;;
9759;SDS011;4919;48.792;9.202;2023-03-01T08:34:11;18.93;;;11.50;;
9759;SDS011;4919;48.792;9.202;2023-03-01T08:36:58;16.53;;;10.30;;
9759;SDS011;4919;48.792;9.202;2023-03-01T08:39:42;15.47;;;10.57;;
9759;SDS011;4919;48.792;9.202;2023-03-01T08:42:27;16.17;;;10.73;;
9759;SDS011;4919;48.792;9.202;2023-03-01T08:45:12;15.90;;;9.63;;
9759;SDS011;4919;48.792;9.202;2023-03-01T08:47:57;15.57;;;9.97;;
9759;SDS011;4919;48.792;9.202;2023-03-01T08:50:42;16.43;;;10.17;;
9759;SDS011;4919;48.792;9.202;2023-03-01T08:53:26;14.93;;;9.67;;
9759;SDS011;4919;48.792;9.202;2023-03-01T08:56:12;13.07;;;9.57;;
9759;SDS011;4919;48.792;9.202;2023-03-01T08:58:57;14.30;;;9.40;;
9759;SDS011;4919;48.792;9.202;2023-03-01T09:01:42;15.87;;;8.93;;
9759;SDS011;4919;48.792;9.202;2023-03-01T09:04:26;13.67;;;9.07;;
9759;SDS011;4919;48.792;9.202;2023-03-01T09:07:11;14.10;;;8.87;;
9759;SDS011;4919;48.792;9.202;2023-03-01T09:09:56;12.57;;;8.67;;
9759;SDS011;4919;48.792;9.202;2023-03-01T09:12:41;14.67;;;8.80;;
9759;SDS011;4919;48.792;9.202;2023-03-01T09:15:26;14.60;;;8.60;;
9759;SDS011;4919;48.792;9.202;2023-03-01T09:18:11;14.47;;;8.47;;
9759;SDS011;4919;48.792;9.202;2023-03-01T09:21:06;11.97;;;8.50;;
9759;SDS011;4919;48.792;9.202;2023-03-01T09:23:55;13.83;;;8.10;;
9759;SDS011;4919;48.792;9.202;2023-03-01T09:26:41;14.60;;;8.70;;
9759;SDS011;4919;48.792;9.202;2023-03-01T09:29:27;12.20;;;8.00;;
9759;SDS011;4919;48.792;9.202;2023-03-01T09:32:11;14.73;;;8.53;;
9759;SDS011;4919;48.792;9.202;2023-03-01T09:34:56;12.30;;;8.37;;
9759;SDS011;4919;48.792;9.202;2023-03-01T09:37:41;10.83;;;7.27;;
9759;SDS011;4919;48.792;9.202;2023-03-01T09:40:26;12.13;;;7.97;;
9759;SDS011;4919;48.792;9.202;2023-03-01T09:43:18;12.67;;;7.80;;
9759;SDS011;4919;48.792;9.202;2023-03-01T09:46:04;10.97;;;7.87;;
9759;SDS011;4919;48.792;9.202;2023-03-01T09:48:57;10.00;;;7.07;;
9759;SDS011;4919;48.792;9.202;2023-03-01T09:51:50;12.33;;;7.27;;
9759;SDS011;4919;48.792;9.202;2023-03-01T09:54:43;7.77;;;5.30;;
9759;SDS011;4919;48.792;9.202;2023-03-01T10:00:44;6.27;;;3.47;;
9759;SDS011;4919;48.792;9.202;2023-03-01T10:03:38;8.10;;;5.63;;
9759;SDS011;4919;48.792;9.202;2023-03-01T10:06:28;8.07;;;5.23;;
9759;SDS011;4919;48.792;9.202;2023-03-01T10:09:16;7.93;;;5.10;;
9759;SDS011;4919;48.792;9.202;2023-03-01T10:12:02;7.33;;;5.60;;
9759;SDS011;4919;48.792;9.202;2023-03-01T10:14:59;6.17;;;4.83;;
9759;SDS011;4919;48.792;9.202;2023-03-01T10:17:55;7.13;;;5.00;;
9759;SDS011;4919;48.792;9.202;2023-03-01T10:20:55;7.90;;;5.50;;
9759;SDS011;4919;48.792;9.202;2023-03-01T10:23:43;8.53;;;5.60;;
9759;SDS011;4919;48.792;9.202;2023-03-01T10:29:37;9.27;;;6.57;;
9759;SDS011;4919;48.792;9.202;2023-03-01T10:32:28;9.63;;;6.23;;
9759;SDS011;4919;48.792;9.202;2023-03-01T10:35:29;9.83;;;6.67;;
9759;SDS011;4919;48.792;9.202;2023-03-01T10:38:18;10.73;;;7.00;;
9759;SDS011;4919;48.792;9.202;2023-03-01T10:41:06;9.07;;;6.70;;
9759;SDS011;4919;48.792;9.202;2023-03-01T10:43:56;15.10;;;7.03;;
9759;SDS011;4919;48.792;9.202;2023-03-01T10:46:41;11.50;;;6.90;;
9759;SDS011;4919;48.792;9.202;2023-03-01T10:49:26;9.13;;;6.77;;
9759;SDS011;4919;48.792;9.202;2023-03-01T10:52:17;10.73;;;6.90;;
9759;SDS011;4919;48.792;9.202;2023-03-01T10:55:26;10.33;;;7.27;;
9759;SDS011;4919;48.792;9.202;2023-03-01T10:58:19;10.57;;;7.30;;
9759;SDS011;4919;48.792;9.202;2023-03-01T11:01:27;10.27;;;7.67;;
9759;SDS011;4919;48.792;9.202;2023-03-01T11:04:12;11.10;;;6.93;;
9759;SDS011;4919;48.792;9.202;2023-03-01T11:06:58;11.20;;;6.97;;
9759;SDS011;4919;48.792;9.202;2023-03-01T11:09:44;11.67;;;7.93;;
9759;SDS011;4919;48.792;9.202;2023-03-01T11:12:28;10.60;;;7.57;;
9759;SDS011;4919;48.792;9.202;2023-03-01T11:15:47;11.30;;;7.23;;
9759;SDS011;4919;48.792;9.202;2023-03-01T11:18:24;9.97;;;6.77;;
9759;SDS011;4919;48.792;9.202;2023-03-01T11:21:11;11.03;;;7.33;;
9759;SDS011;4919;48.792;9.202;2023-03-01T11:23:57;14.27;;;6.83;;
9759;SDS011;4919;48.792;9.202;2023-03-01T11:26:45;10.30;;;6.57;;
9759;SDS011;4919;48.792;9.202;2023-03-01T11:29:36;9.60;;;6.87;;
9759;SDS011;4919;48.792;9.202;2023-03-01T11:32:25;22.03;;;15.37;;
9759;SDS011;4919;48.792;9.202;2023-03-01T11:35:23;11.57;;;8.60;;
9759;SDS011;4919;48.792;9.202;2023-03-01T11:38:16;9.97;;;6.30;;
9759;SDS011;4919;48.792;9.202;2023-03-01T11:41:13;9.37;;;6.27;;
9759;SDS011;4919;48.792;9.202;2023-03-01T11:44:02;11.90;;;7.10;;
9759;SDS011;4919;48.792;9.202;2023-03-01T11:56:50;12.27;;;6.67;;
9759;SDS011;4919;48.792;9.202;2023-03-01T12:03:02;8.33;;;5.87;;
9759;SDS011;4919;48.792;9.202;2023-03-01T12:33:36;7.57;;;5.13;;
9759;SDS011;4919;48.792;9.202;2023-03-01T12:52:29;8.97;;;5.13;;
9759;SDS011;4919;48.792;9.202;2023-03-01T12:54:57;9.90;;;5.00;;
9759;SDS011;4919;48.792;9.202;2023-03-01T12:57:47;7.03;;;4.47;;
9759;SDS011;4919;48.792;9.202;2023-03-01T13:15:33;7.53;;;4.87;;
9759;SDS011;4919;48.792;9.202;2023-03-01T13:21:06;6.90;;;4.30;;
9759;SDS011;4919;48.792;9.202;2023-03-01T13:23:51;8.57;;;4.00;;
9759;SDS011;4919;48.792;9.202;2023-03-01T13:27:08;6.40;;;4.20;;
9759;SDS011;4919;48.792;9.202;2023-03-01T13:29:59;7.40;;;3.90;;
9759;SDS011;4919;48.792;9.202;2023-03-01T13:32:44;5.97;;;4.00;;
9759;SDS011;4919;48.792;9.202;2023-03-01T13:35:42;5.07;;;3.70;;
9759;SDS011;4919;48.792;9.202;2023-03-01T13:38:38;5.23;;;3.50;;
9759;SDS011;4919;48.792;9.202;2023-03-01T13:41:48;7.00;;;4.27;;
9759;SDS011;4919;48.792;9.202;2023-03-01T13:44:36;10.17;;;7.63;;
9759;SDS011;4919;48.792;9.202;2023-03-01T13:47:21;7.50;;;3.90;;
9759;SDS011;4919;48.792;9.202;2023-03-01T13:50:06;8.90;;;6.33;;
9759;SDS011;4919;48.792;9.202;2023-03-01T13:52:55;8.37;;;4.33;;
9759;SDS011;4919;48.792;9.202;2023-03-01T13:55:56;18.47;;;10.70;;
9759;SDS011;4919;48.792;9.202;2023-03-01T13:58:49;13.53;;;7.50;;
9759;SDS011;4919;48.792;9.202;2023-03-01T14:01:53;8.33;;;5.40;;
9759;SDS011;4919;48.792;9.202;2023-03-01T14:04:40;35.93;;;21.80;;
9759;SDS011;4919;48.792;9.202;2023-03-01T14:07:25;7.63;;;4.10;;
9759;SDS011;4919;48.792;9.202;2023-03-01T14:10:11;12.03;;;5.53;;
9759;SDS011;4919;48.792;9.202;2023-03-01T14:13:02;19.80;;;9.60;;
9759;SDS011;4919;48.792;9.202;2023-03-01T14:16:09;5.83;;;3.33;;
9759;SDS011;4919;48.792;9.202;2023-03-01T14:19:16;3.70;;;2.70;;
9759;SDS011;4919;48.792;9.202;2023-03-01T14:22:16;3.90;;;2.90;;
9759;SDS011;4919;48.792;9.202;2023-03-01T14:25:14;8.67;;;4.67;;
9759;SDS011;4919;48.792;9.202;2023-03-01T14:31:32;14.23;;;6.87;;
9759;SDS011;4919;48.792;9.202;2023-03-01T14:34:21;3.93;;;2.33;;
9759;SDS011;4919;48.792;9.202;2023-03-01T14:37:11;4.60;;;2.40;;
9759;SDS011;4919;48.792;9.202;2023-03-01T14:40:20;3.70;;;2.50;;
9759;SDS011;4919;48.792;9.202;2023-03-01T14:43:09;4.37;;;2.80;;
9759;SDS011;4919;48.792;9.202;2023-03-01T14:45:59;4.53;;;2.93;;
9759;SDS011;4919;48.792;9.202;2023-03-01T14:48:44;3.17;;;2.60;;
9759;SDS011;4919;48.792;9.202;2023-03-01T14:51:29;4.43;;;2.60;;
9759;SDS011;4919;48.792;9.202;2023-03-01T14:54:27;7.17;;;5.50;;
9759;SDS011;4919;48.792;9.202;2023-03-01T14:57:20;8.37;;;3.40;;
9759;SDS011;4919;48.792;9.202;2023-03-01T15:00:07;3.60;;;2.33;;
9759;SDS011;4919;48.792;9.202;2023-03-01T15:02:53;3.60;;;2.30;;
9759;SDS011;4919;48.792;9.202;2023-03-01T15:05:40;3.17;;;2.20;;
9759;SDS011;4919;48.792;9.202;2023-03-01T15:08:26;5.53;;;2.57;;
9759;SDS011;4919;48.792;9.202;2023-03-01T15:14:25;3.93;;;2.40;;
9759;SDS011;4919;48.792;9.202;2023-03-01T15:17:33;3.70;;;2.73;;
9759;SDS011;4919;48.792;9.202;2023-03-01T15:20:19;4.43;;;3.00;;
9759;SDS011;4919;48.792;9.202;2023-03-01T15:23:04;5.27;;;3.30;;
9759;SDS011;4919;48.792;9.202;2023-03-01T15:25:50;5.13;;;2.53;;
9759;SDS011;4919;48.792;9.202;2023-03-01T15:28:40;7.67;;;4.10;;
9759;SDS011;4919;48.792;9.202;2023-03-01T15:31:28;4.97;;;3.20;;
9759;SDS011;4919;48.792;9.202;2023-03-01T15:34:23;10.70;;;5.67;;
9759;SDS011;4919;48.792;9.202;2023-03-01T15:40:30;3.57;;;2.23;;
9759;SDS011;4919;48.792;9.202;2023-03-01T15:43:36;4.03;;;2.40;;
9759;SDS011;4919;48.792;9.202;2023-03-01T15:46:31;4.13;;;2.30;;
9759;SDS011;4919;48.792;9.202;2023-03-01T15:49:35;4.27;;;2.17;;
9759;SDS011;4919;48.792;9.202;2023-03-01T15:52:33;10.20;;;2.63;;
9759;SDS011;4919;48.792;9.202;2023-03-01T15:55:21;4.20;;;2.50;;
9759;SDS011;4919;48.792;9.202;2023-03-01T15:58:18;4.00;;;2.40;;
9759;SDS011;4919;48.792;9.202;2023-03-01T16:01:08;5.37;;;2.50;;
9759;SDS011;4919;48.792;9.202;2023-03-01T16:03:57;6.93;;;2.53;;
9759;SDS011;4919;48.792;9.202;2023-03-01T16:06:42;12.87;;;2.87;;
9759;SDS011;4919;48.792;9.202;2023-03-01T16:09:27;4.57;;;2.50;;
9759;SDS011;4919;48.792;9.202;2023-03-01T16:12:15;3.33;;;2.43;;
9759;SDS011;4919;48.792;9.202;2023-03-01T16:15:01;4.40;;;2.20;;
9759;SDS011;4919;48.792;9.202;2023-03-01T16:17:46;3.30;;;2.53;;
9759;SDS011;4919;48.792;9.202;2023-03-01T16:20:31;5.00;;;2.47;;
9759;SDS011;4919;48.792;9.202;2023-03-01T16:23:16;3.83;;;2.40;;
9759;SDS011;4919;48.792;9.202;2023-03-01T16:26:00;3.97;;;2.63;;
9759;SDS011;4919;48.792;9.202;2023-03-01T16:28:45;5.40;;;2.67;;
9759;SDS011;4919;48.792;9.202;2023-03-01T16:31:31;4.07;;;2.60;;
9759;SDS011;4919;48.792;9.202;2023-03-01T16:34:15;4.43;;;2.57;;
9759;SDS011;4919;48.792;9.202;2023-03-01T16:37:00;5.63;;;2.57;;
9759;SDS011;4919;48.792;9.202;2023-03-01T16:39:45;4.40;;;2.33;;
9759;SDS011;4919;48.792;9.202;2023-03-01T16:42:33;3.13;;;2.20;;
9759;SDS011;4919;48.792;9.202;2023-03-01T16:45:19;4.20;;;2.50;;
9759;SDS011;4919;48.792;9.202;2023-03-01T16:48:04;3.87;;;2.80;;
9759;SDS011;4919;48.792;9.202;2023-03-01T16:50:56;4.40;;;2.63;;
9759;SDS011;4919;48.792;9.202;2023-03-01T16:53:44;5.10;;;2.60;;
9759;SDS011;4919;48.792;9.202;2023-03-01T16:56:29;3.73;;;2.37;;
9759;SDS011;4919;48.792;9.202;2023-03-01T16:59:14;4.33;;;2.37;;
9759;SDS011;4919;48.792;9.202;2023-03-01T17:01:59;4.43;;;2.30;;
9759;SDS011;4919;48.792;9.202;2023-03-01T17:04:44;4.57;;;2.17;;
9759;SDS011;4919;48.792;9.202;2023-03-01T17:07:29;4.00;;;2.30;;
9759;SDS011;4919;48.792;9.202;2023-03-01T17:10:15;4.50;;;2.57;;
9759;SDS011;4919;48.792;9.202;2023-03-01T17:13:00;2.80;;;2.30;;
9759;SDS011;4919;48.792;9.202;2023-03-01T17:15:45;4.93;;;2.30;;
9759;SDS011;4919;48.792;9.202;2023-03-01T17:18:30;4.00;;;2.70;;
9759;SDS011;4919;48.792;9.202;2023-03-01T17:21:15;5.10;;;2.40;;
9759;SDS011;4919;48.792;9.202;2023-03-01T17:24:00;3.80;;;2.10;;
9759;SDS011;4919;48.792;9.202;2023-03-01T17:26:45;4.60;;;2.40;;
9759;SDS011;4919;48.792;9.202;2023-03-01T17:29:30;4.60;;;2.47;;
9759;SDS011;4919;48.792;9.202;2023-03-01T17:32:15;5.73;;;2.80;;
9759;SDS011;4919;48.792;9.202;2023-03-01T17:35:00;4.67;;;2.40;;
9759;SDS011;4919;48.792;9.202;2023-03-01T17:37:44;5.17;;;2.40;;
9759;SDS011;4919;48.792;9.202;2023-03-01T17:40:29;4.00;;;2.37;;
9759;SDS011;4919;48.792;9.202;2023-03-01T17:43:15;7.07;;;2.37;;
9759;SDS011;4919;48.792;9.202;2023-03-01T17:46:00;6.53;;;2.63;;
9759;SDS011;4919;48.792;9.202;2023-03-01T17:48:45;5.80;;;2.57;;
9759;SDS011;4919;48.792;9.202;2023-03-01T17:51:30;3.63;;;2.70;;
9759;SDS011;4919;48.792;9.202;2023-03-01T17:54:15;3.87;;;2.83;;
9759;SDS011;4919;48.792;9.202;2023-03-01T17:57:00;3.90;;;2.70;;
9759;SDS011;4919;48.792;9.202;2023-03-01T17:59:45;4.13;;;2.63;;
9759;SDS011;4919;48.792;9.202;2023-03-01T18:02:29;4.17;;;2.70;;
9759;SDS011;4919;48.792;9.202;2023-03-01T18:05:14;4.20;;;3.00;;
9759;SDS011;4919;48.792;9.202;2023-03-01T18:07:59;3.80;;;2.73;;
9759;SDS011;4919;48.792;9.202;2023-03-01T18:10:44;4.40;;;2.83;;
9759;SDS011;4919;48.792;9.202;2023-03-01T18:13:29;6.93;;;3.10;;
9759;SDS011;4919;48.792;9.202;2023-03-01T18:16:14;4.87;;;3.50;;
9759;SDS011;4919;48.792;9.202;2023-03-01T18:19:00;5.70;;;3.20;;
9759;SDS011;4919;48.792;9.202;2023-03-01T18:21:45;5.83;;;3.50;;
9759;SDS011;4919;48.792;9.202;2023-03-01T18:24:30;4.50;;;2.90;;
9759;SDS011;4919;48.792;9.202;2023-03-01T18:27:15;5.13;;;3.13;;
9759;SDS011;4919;48.792;9.202;2023-03-01T18:30:00;4.23;;;2.80;;
9759;SDS011;4919;48.792;9.202;2023-03-01T18:32:45;5.67;;;3.13;;
9759;SDS011;4919;48.792;9.202;2023-03-01T18:35:29;5.50;;;3.23;;
9759;SDS011;4919;48.792;9.202;2023-03-01T18:38:15;5.33;;;3.53;;
9759;SDS011;4919;48.792;9.202;2023-03-01T18:40:59;5.37;;;3.40;;
9759;SDS011;4919;48.792;9.202;2023-03-01T18:43:44;6.00;;;3.67;;